sensor_id;sensor_type;location;lat;lon;timestamp;pressure;altitude;pressure_sealevel;temperature;humidity
5500;BME280;2772;42.700;23.304;2023-04-24T00:01:20;94887.91;;;14.43;100.00
5500;BME280;2772;42.700;23.304;2023-04-24T00:03:47;94884.78;;;14.28;100.00
5500;BME280;2772;42.700;23.304;2023-04-24T00:06:14;94877.31;;;14.34;100.00
5500;BME280;2772;42.700;23.304;2023-04-24T00:08:42;94873.75;;;14.30;100.00
5500;BME280;2772;42.700;23.304;2023-04-24T00:11:08;94868.13;;;14.23;100.00
5500;BME280;2772;42.700;23.304;2023-04-24T00:13:37;94874.50;;;14.18;100.00
5500;BME280;2772;42.700;23.304;2023-04-24T00:16:04;94873.16;;;14.12;100.00
5500;BME280;2772;42.700;23.304;2023-04-24T00:18:31;94879.50;;;14.08;100.00
5500;BME280;2772;42.700;23.304;2023-04-24T00:20:58;94879.25;;;14.13;100.00
5500;BME280;2772;42.700;23.304;2023-04-24T00:23:25;94877.59;;;14.08;100.00
5500;BME280;2772;42.700;23.304;2023-04-24T00:25:51;94883.19;;;14.03;94.89
5500;BME280;2772;42.700;23.304;2023-04-24T00:28:18;94876.59;;;14.01;96.69
5500;BME280;2772;42.700;23.304;2023-04-24T00:30:46;94874.81;;;14.05;96.36
5500;BME280;2772;42.700;23.304;2023-04-24T00:33:13;94874.81;;;14.05;98.32
5500;BME280;2772;42.700;23.304;2023-04-24T00:35:40;94876.59;;;14.01;99.20
5500;BME280;2772;42.700;23.304;2023-04-24T00:38:07;94876.03;;;13.95;94.50
5500;BME280;2772;42.700;23.304;2023-04-24T00:40:33;94877.84;;;14.03;94.04
5500;BME280;2772;42.700;23.304;2023-04-24T00:43:00;94879.50;;;14.08;94.90
5500;BME280;2772;42.700;23.304;2023-04-24T00:45:27;94876.16;;;14.11;96.60
5500;BME280;2772;42.700;23.304;2023-04-24T00:47:55;94866.00;;;14.16;92.99
5500;BME280;2772;42.700;23.304;2023-04-24T00:50:23;94861.56;;;14.20;91.61
5500;BME280;2772;42.700;23.304;2023-04-24T00:52:51;94871.13;;;14.21;92.30
5500;BME280;2772;42.700;23.304;2023-04-24T00:55:18;94865.78;;;14.21;95.59
5500;BME280;2772;42.700;23.304;2023-04-24T00:57:46;94861.78;;;14.27;92.56
5500;BME280;2772;42.700;23.304;2023-04-24T01:00:14;94869.38;;;14.25;98.81
5500;BME280;2772;42.700;23.304;2023-04-24T01:02:42;94861.78;;;14.27;99.05
5500;BME280;2772;42.700;23.304;2023-04-24T01:05:12;94866.16;;;14.32;99.24
5500;BME280;2772;42.700;23.304;2023-04-24T01:07:39;94875.38;;;14.22;100.00
5500;BME280;2772;42.700;23.304;2023-04-24T01:10:10;94870.50;;;14.24;100.00
5500;BME280;2772;42.700;23.304;2023-04-24T01:12:37;94856.88;;;14.29;100.00
5500;BME280;2772;42.700;23.304;2023-04-24T01:15:04;94851.59;;;14.21;100.00
5500;BME280;2772;42.700;23.304;2023-04-24T01:17:31;94844.34;;;14.09;98.34
5500;BME280;2772;42.700;23.304;2023-04-24T01:19:58;94848.94;;;13.97;97.96
5500;BME280;2772;42.700;23.304;2023-04-24T01:22:27;94850.69;;;13.93;100.00
5500;BME280;2772;42.700;23.304;2023-04-24T01:24:54;94845.88;;;13.74;100.00
5500;BME280;2772;42.700;23.304;2023-04-24T01:27:20;94840.97;;;13.76;100.00
5500;BME280;2772;42.700;23.304;2023-04-24T01:29:47;94846.53;;;13.71;100.00
5500;BME280;2772;42.700;23.304;2023-04-24T01:32:17;94839.91;;;13.57;100.00
5500;BME280;2772;42.700;23.304;2023-04-24T01:34:45;94843.47;;;13.49;100.00
5500;BME280;2772;42.700;23.304;2023-04-24T01:37:12;94836.53;;;13.48;100.00
5500;BME280;2772;42.700;23.304;2023-04-24T01:39:40;94847.25;;;13.48;100.00
5500;BME280;2772;42.700;23.304;2023-04-24T01:42:07;94841.75;;;13.32;100.00
5500;BME280;2772;42.700;23.304;2023-04-24T01:44:33;94841.50;;;13.25;100.00
5500;BME280;2772;42.700;23.304;2023-04-24T01:47:01;94836.56;;;13.15;100.00
5500;BME280;2772;42.700;23.304;2023-04-24T01:49:27;94836.88;;;13.14;100.00
5500;BME280;2772;42.700;23.304;2023-04-24T01:51:54;94833.69;;;13.20;100.00
5500;BME280;2772;42.700;23.304;2023-04-24T01:54:21;94825.06;;;13.15;100.00
5500;BME280;2772;42.700;23.304;2023-04-24T01:56:49;94821.44;;;13.19;100.00
5500;BME280;2772;42.700;23.304;2023-04-24T01:59:17;94826.44;;;13.21;100.00
5500;BME280;2772;42.700;23.304;2023-04-24T02:01:44;94827.34;;;13.25;100.00
5500;BME280;2772;42.700;23.304;2023-04-24T02:04:10;94835.03;;;13.26;100.00
5500;BME280;2772;42.700;23.304;2023-04-24T02:06:37;94825.19;;;13.18;100.00
5500;BME280;2772;42.700;23.304;2023-04-24T02:09:04;94823.13;;;13.24;100.00
5500;BME280;2772;42.700;23.304;2023-04-24T02:11:31;94823.88;;;13.24;100.00
5500;BME280;2772;42.700;23.304;2023-04-24T02:13:59;94829.44;;;13.19;100.00
5500;BME280;2772;42.700;23.304;2023-04-24T02:16:27;94828.19;;;13.17;100.00
5500;BME280;2772;42.700;23.304;2023-04-24T02:18:55;94824.84;;;13.08;100.00
5500;BME280;2772;42.700;23.304;2023-04-24T02:21:22;94829.31;;;12.95;100.00
5500;BME280;2772;42.700;23.304;2023-04-24T02:23:48;94825.97;;;12.98;100.00
5500;BME280;2772;42.700;23.304;2023-04-24T02:26:15;94838.56;;;12.98;100.00
5500;BME280;2772;42.700;23.304;2023-04-24T02:28:42;94833.03;;;12.82;100.00
5500;BME280;2772;42.700;23.304;2023-04-24T02:31:10;94832.25;;;12.82;100.00
5500;BME280;2772;42.700;23.304;2023-04-24T02:33:37;94820.44;;;12.82;100.00
5500;BME280;2772;42.700;23.304;2023-04-24T02:36:04;94806.94;;;12.79;100.00
5500;BME280;2772;42.700;23.304;2023-04-24T02:38:31;94809.06;;;12.73;100.00
5500;BME280;2772;42.700;23.304;2023-04-24T02:40:58;94810.03;;;12.69;100.00
5500;BME280;2772;42.700;23.304;2023-04-24T02:43:26;94798.69;;;12.72;100.00
5500;BME280;2772;42.700;23.304;2023-04-24T02:45:52;94803.00;;;12.64;100.00
5500;BME280;2772;42.700;23.304;2023-04-24T02:48:20;94799.25;;;12.57;100.00
5500;BME280;2772;42.700;23.304;2023-04-24T02:50:47;94802.34;;;12.67;100.00
5500;BME280;2772;42.700;23.304;2023-04-24T02:53:13;94797.00;;;12.67;100.00
5500;BME280;2772;42.700;23.304;2023-04-24T02:55:40;94803.31;;;12.63;100.00
5500;BME280;2772;42.700;23.304;2023-04-24T02:58:07;94809.75;;;12.62;100.00
5500;BME280;2772;42.700;23.304;2023-04-24T03:00:34;94805.53;;;12.61;100.00
5500;BME280;2772;42.700;23.304;2023-04-24T03:03:00;94809.75;;;12.62;100.00
5500;BME280;2772;42.700;23.304;2023-04-24T03:05:29;94795.03;;;12.56;100.00
5500;BME280;2772;42.700;23.304;2023-04-24T03:07:56;94812.19;;;12.55;100.00
5500;BME280;2772;42.700;23.304;2023-04-24T03:10:23;94807.50;;;12.52;100.00
5500;BME280;2772;42.700;23.304;2023-04-24T03:12:49;94808.72;;;12.54;100.00
5500;BME280;2772;42.700;23.304;2023-04-24T03:15:16;94806.19;;;12.58;100.00
5500;BME280;2772;42.700;23.304;2023-04-24T03:17:43;94810.94;;;12.52;100.00
5500;BME280;2772;42.700;23.304;2023-04-24T03:20:10;94815.38;;;12.48;100.00
5500;BME280;2772;42.700;23.304;2023-04-24T03:22:38;94809.31;;;12.39;100.00
5500;BME280;2772;42.700;23.304;2023-04-24T03:25:05;94819.00;;;12.44;100.00
5500;BME280;2772;42.700;23.304;2023-04-24T03:27:33;94814.00;;;12.42;100.00
5500;BME280;2772;42.700;23.304;2023-04-24T03:30:00;94813.34;;;12.45;100.00
5500;BME280;2772;42.700;23.304;2023-04-24T03:32:27;94825.25;;;12.48;100.00
5500;BME280;2772;42.700;23.304;2023-04-24T03:34:54;94822.72;;;12.51;100.00
5500;BME280;2772;42.700;23.304;2023-04-24T03:37:20;94812.19;;;12.55;100.00
5500;BME280;2772;42.700;23.304;2023-04-24T03:39:48;94812.56;;;12.45;100.00
5500;BME280;2772;42.700;23.304;2023-04-24T03:42:15;94808.53;;;12.39;100.00
5500;BME280;2772;42.700;23.304;2023-04-24T03:44:42;94805.66;;;12.44;100.00
5500;BME280;2772;42.700;23.304;2023-04-24T03:47:09;94818.03;;;12.48;100.00
5500;BME280;2772;42.700;23.304;2023-04-24T03:49:35;94810.78;;;12.49;100.00
5500;BME280;2772;42.700;23.304;2023-04-24T03:52:02;94811.19;;;12.39;100.00
5500;BME280;2772;42.700;23.304;2023-04-24T03:54:29;94813.78;;;12.27;100.00
5500;BME280;2772;42.700;23.304;2023-04-24T03:56:57;94810.31;;;12.26;100.00
5500;BME280;2772;42.700;23.304;2023-04-24T03:59:23;94816.50;;;12.18;100.00
5500;BME280;2772;42.700;23.304;2023-04-24T04:01:50;94807.03;;;12.00;100.00
5500;BME280;2772;42.700;23.304;2023-04-24T04:04:17;94809.16;;;12.07;100.00
5500;BME280;2772;42.700;23.304;2023-04-24T04:06:43;94820.47;;;12.12;100.00
5500;BME280;2772;42.700;23.304;2023-04-24T04:09:11;94811.22;;;12.10;100.00
5500;BME280;2772;42.700;23.304;2023-04-24T04:11:38;94817.28;;;12.19;100.00
5500;BME280;2772;42.700;23.304;2023-04-24T04:14:06;94815.66;;;12.26;100.00
5500;BME280;2772;42.700;23.304;2023-04-24T04:16:33;94808.53;;;12.39;100.00
5500;BME280;2772;42.700;23.304;2023-04-24T04:19:01;94807.34;;;12.48;100.00
5500;BME280;2772;42.700;23.304;2023-04-24T04:21:28;94802.59;;;12.54;100.00
5500;BME280;2772;42.700;23.304;2023-04-24T04:23:57;94805.44;;;12.49;100.00
5500;BME280;2772;42.700;23.304;2023-04-24T04:26:24;94810.75;;;12.57;100.00
5500;BME280;2772;42.700;23.304;2023-04-24T04:28:51;94824.25;;;12.61;100.00
5500;BME280;2772;42.700;23.304;2023-04-24T04:31:20;94830.44;;;12.73;100.00
5500;BME280;2772;42.700;23.304;2023-04-24T04:33:47;94835.97;;;12.68;100.00
5500;BME280;2772;42.700;23.304;2023-04-24T04:36:14;94838.25;;;12.78;100.00
5500;BME280;2772;42.700;23.304;2023-04-24T04:38:42;94845.06;;;12.88;100.00
5500;BME280;2772;42.700;23.304;2023-04-24T04:41:10;94831.09;;;12.91;100.00
5500;BME280;2772;42.700;23.304;2023-04-24T04:43:36;94833.94;;;12.86;99.25
5500;BME280;2772;42.700;23.304;2023-04-24T04:46:05;94843.34;;;12.92;98.99
5500;BME280;2772;42.700;23.304;2023-04-24T04:48:35;94846.66;;;12.89;98.61
5500;BME280;2772;42.700;23.304;2023-04-24T04:51:01;94842.88;;;12.90;97.32
5500;BME280;2772;42.700;23.304;2023-04-24T04:53:28;94847.88;;;13.00;97.36
5500;BME280;2772;42.700;23.304;2023-04-24T04:55:55;94860.56;;;13.03;96.61
5500;BME280;2772;42.700;23.304;2023-04-24T04:58:21;94852.03;;;13.10;96.40
5500;BME280;2772;42.700;23.304;2023-04-24T05:00:48;94853.44;;;13.07;95.77
5500;BME280;2772;42.700;23.304;2023-04-24T05:03:15;94852.47;;;13.12;96.66
5500;BME280;2772;42.700;23.304;2023-04-24T05:05:43;94857.72;;;13.08;96.40
5500;BME280;2772;42.700;23.304;2023-04-24T05:08:09;94855.97;;;13.24;96.00
5500;BME280;2772;42.700;23.304;2023-04-24T05:10:36;94849.53;;;13.25;96.31
5500;BME280;2772;42.700;23.304;2023-04-24T05:13:03;94861.81;;;13.38;95.07
5500;BME280;2772;42.700;23.304;2023-04-24T05:15:30;94848.97;;;13.32;94.79
5500;BME280;2772;42.700;23.304;2023-04-24T05:17:57;94851.78;;;13.35;94.61
5500;BME280;2772;42.700;23.304;2023-04-24T05:20:23;94860.78;;;13.31;94.75
5500;BME280;2772;42.700;23.304;2023-04-24T05:22:52;94843.00;;;13.35;95.36
5500;BME280;2772;42.700;23.304;2023-04-24T05:25:18;94851.72;;;13.44;95.10
5500;BME280;2772;42.700;23.304;2023-04-24T05:27:45;94844.53;;;13.36;95.90
5500;BME280;2772;42.700;23.304;2023-04-24T05:30:12;94850.72;;;13.48;96.06
5500;BME280;2772;42.700;23.304;2023-04-24T05:32:39;94847.22;;;13.36;95.60
5500;BME280;2772;42.700;23.304;2023-04-24T05:35:06;94853.13;;;13.41;95.85
5500;BME280;2772;42.700;23.304;2023-04-24T05:37:33;94846.59;;;13.51;94.88
5500;BME280;2772;42.700;23.304;2023-04-24T05:40:01;94852.13;;;13.46;95.43
5500;BME280;2772;42.700;23.304;2023-04-24T05:42:29;94847.19;;;13.56;94.30
5500;BME280;2772;42.700;23.304;2023-04-24T05:44:56;94861.78;;;13.59;93.68
5500;BME280;2772;42.700;23.304;2023-04-24T05:47:23;94859.19;;;13.50;93.86
5500;BME280;2772;42.700;23.304;2023-04-24T05:49:51;94856.34;;;13.67;93.67
5500;BME280;2772;42.700;23.304;2023-04-24T05:52:18;94859.84;;;13.80;92.80
5500;BME280;2772;42.700;23.304;2023-04-24T05:54:45;94852.41;;;13.53;93.80
5500;BME280;2772;42.700;23.304;2023-04-24T05:57:13;94848.03;;;13.48;95.56
5500;BME280;2772;42.700;23.304;2023-04-24T05:59:40;94848.03;;;13.48;96.03
5500;BME280;2772;42.700;23.304;2023-04-24T06:02:07;94850.34;;;13.82;100.00
5500;BME280;2772;42.700;23.304;2023-04-24T06:04:34;94848.38;;;14.03;100.00
5500;BME280;2772;42.700;23.304;2023-04-24T06:07:00;94856.28;;;14.00;96.57
5500;BME280;2772;42.700;23.304;2023-04-24T06:09:28;94850.25;;;14.03;92.48
5500;BME280;2772;42.700;23.304;2023-04-24T06:11:54;94857.03;;;14.00;92.11
5500;BME280;2772;42.700;23.304;2023-04-24T06:14:23;94850.72;;;14.05;91.46
5500;BME280;2772;42.700;23.304;2023-04-24T06:16:50;94848.59;;;14.10;91.72
5500;BME280;2772;42.700;23.304;2023-04-24T06:19:16;94842.69;;;14.29;91.19
5500;BME280;2772;42.700;23.304;2023-04-24T06:21:43;94842.81;;;14.45;90.21
5500;BME280;2772;42.700;23.304;2023-04-24T06:24:10;94849.06;;;14.61;88.46
5500;BME280;2772;42.700;23.304;2023-04-24T06:26:37;94851.25;;;14.83;89.19
5500;BME280;2772;42.700;23.304;2023-04-24T06:29:03;94860.38;;;14.82;86.70
5500;BME280;2772;42.700;23.304;2023-04-24T06:31:32;94849.72;;;15.09;95.51
5500;BME280;2772;42.700;23.304;2023-04-24T06:34:02;94852.94;;;15.15;90.57
5500;BME280;2772;42.700;23.304;2023-04-24T06:36:28;94861.19;;;15.22;86.52
5500;BME280;2772;42.700;23.304;2023-04-24T06:38:56;94848.66;;;15.26;84.25
5500;BME280;2772;42.700;23.304;2023-04-24T06:41:23;94856.97;;;15.36;83.24
5500;BME280;2772;42.700;23.304;2023-04-24T06:43:49;94862.59;;;15.43;84.06
5500;BME280;2772;42.700;23.304;2023-04-24T06:46:16;94858.69;;;15.41;84.56
5500;BME280;2772;42.700;23.304;2023-04-24T06:48:44;94858.47;;;15.34;84.19
5500;BME280;2772;42.700;23.304;2023-04-24T06:51:11;94857.63;;;15.18;86.56
5500;BME280;2772;42.700;23.304;2023-04-24T06:53:38;94850.47;;;15.10;87.83
5500;BME280;2772;42.700;23.304;2023-04-24T06:56:04;94845.94;;;15.38;86.60
5500;BME280;2772;42.700;23.304;2023-04-24T06:58:31;94843.34;;;15.41;86.72
5500;BME280;2772;42.700;23.304;2023-04-24T07:00:58;94839.91;;;15.41;86.14
5500;BME280;2772;42.700;23.304;2023-04-24T07:03:24;94833.78;;;15.56;85.42
5500;BME280;2772;42.700;23.304;2023-04-24T07:05:54;94843.66;;;15.67;84.07
5500;BME280;2772;42.700;23.304;2023-04-24T07:08:21;94837.28;;;15.88;82.91
5500;BME280;2772;42.700;23.304;2023-04-24T07:10:49;94839.69;;;15.77;83.58
5500;BME280;2772;42.700;23.304;2023-04-24T07:13:16;94837.38;;;15.91;82.41
5500;BME280;2772;42.700;23.304;2023-04-24T07:15:42;94828.34;;;15.83;82.80
5500;BME280;2772;42.700;23.304;2023-04-24T07:18:09;94837.19;;;15.84;82.04
5500;BME280;2772;42.700;23.304;2023-04-24T07:20:36;94836.03;;;15.69;83.17
5500;BME280;2772;42.700;23.304;2023-04-24T07:23:04;94830.78;;;15.73;83.61
5500;BME280;2772;42.700;23.304;2023-04-24T07:25:31;94830.59;;;15.81;83.31
5500;BME280;2772;42.700;23.304;2023-04-24T07:27:57;94827.53;;;15.67;84.17
5500;BME280;2772;42.700;23.304;2023-04-24T07:30:24;94825.56;;;15.80;84.22
5500;BME280;2772;42.700;23.304;2023-04-24T07:32:51;94820.53;;;15.78;83.15
5500;BME280;2772;42.700;23.304;2023-04-24T07:35:17;94817.97;;;15.82;83.02
5500;BME280;2772;42.700;23.304;2023-04-24T07:37:45;94821.34;;;15.79;83.81
5500;BME280;2772;42.700;23.304;2023-04-24T07:40:13;94817.81;;;15.91;84.04
5500;BME280;2772;42.700;23.304;2023-04-24T07:42:40;94821.34;;;15.95;84.15
5500;BME280;2772;42.700;23.304;2023-04-24T07:45:07;94813.63;;;15.93;84.33
5500;BME280;2772;42.700;23.304;2023-04-24T07:47:34;94808.25;;;16.09;83.73
5500;BME280;2772;42.700;23.304;2023-04-24T07:50:02;94810.84;;;16.05;82.44
5500;BME280;2772;42.700;23.304;2023-04-24T07:52:28;94812.91;;;16.27;86.64
5500;BME280;2772;42.700;23.304;2023-04-24T07:54:55;94807.03;;;16.37;80.61
5500;BME280;2772;42.700;23.304;2023-04-24T07:57:25;94810.06;;;16.36;80.83
5500;BME280;2772;42.700;23.304;2023-04-24T07:59:51;94810.16;;;16.39;83.24
5500;BME280;2772;42.700;23.304;2023-04-24T08:02:18;94804.94;;;16.46;85.43
5500;BME280;2772;42.700;23.304;2023-04-24T08:04:47;94799.25;;;16.67;85.22
5500;BME280;2772;42.700;23.304;2023-04-24T08:07:13;94797.50;;;16.74;81.68
5500;BME280;2772;42.700;23.304;2023-04-24T08:09:40;94800.97;;;16.75;82.02
5500;BME280;2772;42.700;23.304;2023-04-24T08:12:07;94798.28;;;16.75;80.37
5500;BME280;2772;42.700;23.304;2023-04-24T08:14:35;94786.25;;;16.88;80.46
5500;BME280;2772;42.700;23.304;2023-04-24T08:17:02;94778.91;;;17.04;80.43
5500;BME280;2772;42.700;23.304;2023-04-24T08:19:28;94786.47;;;17.17;77.44
5500;BME280;2772;42.700;23.304;2023-04-24T08:21:55;94783.41;;;17.19;76.53
5500;BME280;2772;42.700;23.304;2023-04-24T08:24:22;94782.50;;;17.30;77.22
5500;BME280;2772;42.700;23.304;2023-04-24T08:26:49;94769.22;;;17.41;76.36
5500;BME280;2772;42.700;23.304;2023-04-24T08:29:17;94766.47;;;17.37;76.48
5500;BME280;2772;42.700;23.304;2023-04-24T08:31:45;94777.53;;;17.32;76.28
5500;BME280;2772;42.700;23.304;2023-04-24T08:34:11;94777.66;;;17.39;76.60
5500;BME280;2772;42.700;23.304;2023-04-24T08:36:38;94766.75;;;17.32;76.80
5500;BME280;2772;42.700;23.304;2023-04-24T08:39:07;94771.72;;;17.30;77.65
5500;BME280;2772;42.700;23.304;2023-04-24T08:41:34;94764.63;;;17.22;78.82
5500;BME280;2772;42.700;23.304;2023-04-24T08:44:02;94755.94;;;17.29;79.43
5500;BME280;2772;42.700;23.304;2023-04-24T08:46:29;94755.50;;;17.46;79.43
5500;BME280;2772;42.700;23.304;2023-04-24T08:48:58;94753.84;;;17.61;77.17
5500;BME280;2772;42.700;23.304;2023-04-24T08:51:26;94755.56;;;17.72;75.99
5500;BME280;2772;42.700;23.304;2023-04-24T08:53:53;94750.84;;;17.88;75.38
5500;BME280;2772;42.700;23.304;2023-04-24T08:56:21;94736.03;;;18.01;73.54
5500;BME280;2772;42.700;23.304;2023-04-24T08:58:48;94731.59;;;18.12;73.23
5500;BME280;2772;42.700;23.304;2023-04-24T09:01:16;94742.75;;;18.11;72.70
5500;BME280;2772;42.700;23.304;2023-04-24T09:03:43;94735.03;;;18.13;73.92
5500;BME280;2772;42.700;23.304;2023-04-24T09:06:11;94727.88;;;18.24;75.59
5500;BME280;2772;42.700;23.304;2023-04-24T09:08:39;94719.56;;;18.32;74.88
5500;BME280;2772;42.700;23.304;2023-04-24T09:11:07;94706.97;;;18.40;74.19
5500;BME280;2772;42.700;23.304;2023-04-24T09:13:35;94710.66;;;18.58;72.66
5500;BME280;2772;42.700;23.304;2023-04-24T09:16:01;94708.88;;;18.69;72.33
5500;BME280;2772;42.700;23.304;2023-04-24T09:18:28;94706.78;;;18.85;71.05
5500;BME280;2772;42.700;23.304;2023-04-24T09:21:02;94709.97;;;18.94;71.49
5500;BME280;2772;42.700;23.304;2023-04-24T09:23:31;94706.88;;;18.95;68.94
5500;BME280;2772;42.700;23.304;2023-04-24T09:25:59;94701.25;;;19.08;68.38
5500;BME280;2772;42.700;23.304;2023-04-24T09:28:29;94690.00;;;19.02;67.61
5500;BME280;2772;42.700;23.304;2023-04-24T09:31:06;94701.69;;;19.13;65.16
5500;BME280;2772;42.700;23.304;2023-04-24T09:33:33;94695.25;;;19.25;63.57
5500;BME280;2772;42.700;23.304;2023-04-24T09:36:00;94684.91;;;19.30;63.16
5500;BME280;2772;42.700;23.304;2023-04-24T09:38:33;94694.75;;;19.12;63.04
5500;BME280;2772;42.700;23.304;2023-04-24T09:41:01;94679.94;;;18.99;62.44
5500;BME280;2772;42.700;23.304;2023-04-24T09:43:29;94680.78;;;19.03;62.73
5500;BME280;2772;42.700;23.304;2023-04-24T09:45:56;94692.28;;;18.97;63.26
5500;BME280;2772;42.700;23.304;2023-04-24T09:48:30;94691.25;;;19.12;64.62
5500;BME280;2772;42.700;23.304;2023-04-24T09:50:57;94691.19;;;19.05;63.69
5500;BME280;2772;42.700;23.304;2023-04-24T09:53:25;94684.75;;;19.16;63.21
5500;BME280;2772;42.700;23.304;2023-04-24T09:55:53;94685.16;;;19.18;62.47
5500;BME280;2772;42.700;23.304;2023-04-24T09:58:24;94673.38;;;19.30;62.75
5500;BME280;2772;42.700;23.304;2023-04-24T10:00:53;94679.25;;;19.42;61.48
5500;BME280;2772;42.700;23.304;2023-04-24T10:03:20;94670.34;;;19.38;60.38
5500;BME280;2772;42.700;23.304;2023-04-24T10:05:47;94665.34;;;19.40;60.94
5500;BME280;2772;42.700;23.304;2023-04-24T10:08:14;94657.38;;;19.54;60.30
5500;BME280;2772;42.700;23.304;2023-04-24T10:10:43;94646.56;;;19.54;59.45
5500;BME280;2772;42.700;23.304;2023-04-24T10:13:12;94649.75;;;19.70;60.55
5500;BME280;2772;42.700;23.304;2023-04-24T10:15:40;94642.88;;;19.80;58.94
5500;BME280;2772;42.700;23.304;2023-04-24T10:18:08;94630.22;;;19.87;56.91
5500;BME280;2772;42.700;23.304;2023-04-24T10:20:36;94628.31;;;19.91;57.21
5500;BME280;2772;42.700;23.304;2023-04-24T10:23:04;94635.34;;;20.03;57.12
5500;BME280;2772;42.700;23.304;2023-04-24T10:25:32;94616.41;;;20.06;56.61
5500;BME280;2772;42.700;23.304;2023-04-24T10:28:00;94619.13;;;20.10;56.17
5500;BME280;2772;42.700;23.304;2023-04-24T10:30:29;94621.94;;;20.20;55.84
5500;BME280;2772;42.700;23.304;2023-04-24T10:33:00;94610.41;;;20.30;57.19
5500;BME280;2772;42.700;23.304;2023-04-24T10:35:30;94611.22;;;20.41;54.61
5500;BME280;2772;42.700;23.304;2023-04-24T10:38:00;94612.38;;;20.44;55.11
5500;BME280;2772;42.700;23.304;2023-04-24T10:40:31;94598.53;;;20.56;55.35
5500;BME280;2772;42.700;23.304;2023-04-24T10:42:58;94598.56;;;20.67;54.45
5500;BME280;2772;42.700;23.304;2023-04-24T10:45:26;94609.34;;;20.56;53.61
5500;BME280;2772;42.700;23.304;2023-04-24T10:48:02;94598.91;;;20.55;53.59
5500;BME280;2772;42.700;23.304;2023-04-24T10:50:41;94593.09;;;20.53;54.13
5500;BME280;2772;42.700;23.304;2023-04-24T10:53:13;94596.94;;;20.48;54.08
5500;BME280;2772;42.700;23.304;2023-04-24T10:55:42;94590.72;;;20.40;54.92
5500;BME280;2772;42.700;23.304;2023-04-24T10:58:10;94589.13;;;20.29;54.94
5500;BME280;2772;42.700;23.304;2023-04-24T11:00:38;94597.28;;;20.36;55.35
5500;BME280;2772;42.700;23.304;2023-04-24T11:03:06;94596.09;;;20.33;55.53
5500;BME280;2772;42.700;23.304;2023-04-24T11:05:50;94599.22;;;20.35;55.42
5500;BME280;2772;42.700;23.304;2023-04-24T11:08:23;94593.03;;;20.38;55.30
5500;BME280;2772;42.700;23.304;2023-04-24T11:10:56;94590.75;;;20.44;55.71
5500;BME280;2772;42.700;23.304;2023-04-24T11:13:24;94589.19;;;20.39;54.97
5500;BME280;2772;42.700;23.304;2023-04-24T11:16:20;94591.03;;;20.25;53.93
5500;BME280;2772;42.700;23.304;2023-04-24T11:18:52;94604.94;;;20.23;54.04
5500;BME280;2772;42.700;23.304;2023-04-24T11:21:31;94640.47;;;20.22;56.23
5500;BME280;2772;42.700;23.304;2023-04-24T11:23:58;94665.06;;;19.16;95.35
5500;BME280;2772;42.700;23.304;2023-04-24T11:26:24;94648.19;;;18.52;96.74
5500;BME280;2772;42.700;23.304;2023-04-24T11:29:06;94637.88;;;18.02;100.00
5500;BME280;2772;42.700;23.304;2023-04-24T11:31:40;94616.75;;;17.78;100.00
5500;BME280;2772;42.700;23.304;2023-04-24T11:34:13;94604.78;;;18.05;100.00
5500;BME280;2772;42.700;23.304;2023-04-24T11:36:40;94618.19;;;18.28;100.00
5500;BME280;2772;42.700;23.304;2023-04-24T11:39:09;94608.78;;;18.44;100.00
5500;BME280;2772;42.700;23.304;2023-04-24T11:41:36;94609.16;;;18.76;100.00
5500;BME280;2772;42.700;23.304;2023-04-24T11:44:06;94602.72;;;18.91;100.00
5500;BME280;2772;42.700;23.304;2023-04-24T11:46:32;94599.78;;;19.03;100.00
5500;BME280;2772;42.700;23.304;2023-04-24T11:48:59;94593.69;;;19.13;100.00
5500;BME280;2772;42.700;23.304;2023-04-24T11:51:27;94599.56;;;19.22;100.00
5500;BME280;2772;42.700;23.304;2023-04-24T11:53:55;94597.38;;;19.31;100.00
5500;BME280;2772;42.700;23.304;2023-04-24T11:56:22;94588.91;;;19.36;99.53
5500;BME280;2772;42.700;23.304;2023-04-24T11:58:51;94583.97;;;19.45;100.00
5500;BME280;2772;42.700;23.304;2023-04-24T12:01:18;94588.34;;;19.64;94.17
5500;BME280;2772;42.700;23.304;2023-04-24T12:03:48;94579.25;;;19.93;91.63
5500;BME280;2772;42.700;23.304;2023-04-24T12:06:16;94571.72;;;20.23;88.67
5500;BME280;2772;42.700;23.304;2023-04-24T12:08:47;94566.00;;;20.42;82.51
5500;BME280;2772;42.700;23.304;2023-04-24T12:11:15;94567.56;;;20.47;77.31
5500;BME280;2772;42.700;23.304;2023-04-24T12:13:43;94570.66;;;20.48;79.96
5500;BME280;2772;42.700;23.304;2023-04-24T12:16:10;94573.81;;;20.75;77.35
5500;BME280;2772;42.700;23.304;2023-04-24T12:18:41;94576.13;;;20.77;74.52
5500;BME280;2772;42.700;23.304;2023-04-24T12:21:16;94571.13;;;20.79;74.43
5500;BME280;2772;42.700;23.304;2023-04-24T12:23:43;94567.31;;;20.97;76.20
5500;BME280;2772;42.700;23.304;2023-04-24T12:26:12;94557.22;;;20.73;72.14
5500;BME280;2772;42.700;23.304;2023-04-24T12:28:42;94551.41;;;20.82;68.05
5500;BME280;2772;42.700;23.304;2023-04-24T12:31:08;94541.38;;;20.82;72.53
5500;BME280;2772;42.700;23.304;2023-04-24T12:33:35;94538.28;;;20.84;72.53
5500;BME280;2772;42.700;23.304;2023-04-24T12:36:02;94522.41;;;20.82;66.04
5500;BME280;2772;42.700;23.304;2023-04-24T12:38:30;94513.50;;;20.85;70.91
5500;BME280;2772;42.700;23.304;2023-04-24T12:41:06;94513.13;;;20.90;66.02
5500;BME280;2772;42.700;23.304;2023-04-24T12:43:35;94515.88;;;20.97;60.54
5500;BME280;2772;42.700;23.304;2023-04-24T12:46:02;94511.25;;;20.98;61.87
5500;BME280;2772;42.700;23.304;2023-04-24T12:48:29;94503.50;;;21.07;60.36
5500;BME280;2772;42.700;23.304;2023-04-24T12:50:57;94500.41;;;21.15;59.99
5500;BME280;2772;42.700;23.304;2023-04-24T12:53:26;94485.31;;;21.14;62.85
5500;BME280;2772;42.700;23.304;2023-04-24T12:55:57;94481.06;;;21.27;64.22
5500;BME280;2772;42.700;23.304;2023-04-24T12:58:24;94482.22;;;21.23;61.71
5500;BME280;2772;42.700;23.304;2023-04-24T13:00:52;94466.72;;;21.23;61.03
5500;BME280;2772;42.700;23.304;2023-04-24T13:03:19;94472.53;;;21.32;61.52
5500;BME280;2772;42.700;23.304;2023-04-24T13:05:47;94457.03;;;21.40;59.79
5500;BME280;2772;42.700;23.304;2023-04-24T13:08:14;94458.22;;;21.35;57.86
5500;BME280;2772;42.700;23.304;2023-04-24T13:10:41;94462.81;;;21.52;57.61